Time;durP1;ratioP1;P1;durP2;ratioP2;P2;SDS_P1;SDS_P2;PMS_P1;PMS_P2;Temp;Humidity;BMP_temperature;BMP_pressure;BME280_temperature;BME280_humidity;BME280_pressure;Samples;Min_cycle;Max_cycle;Signal;HPM_P1;HPM_P2
2023/06/26 00:02:08;;;;;;;16.30;9.70;;;26.60;99.90;;;;;;1936571;73;21111;-78
2023/06/26 00:04:44;;;;;;;18.35;8.98;;;26.60;99.90;;;;;;1869510;74;21154;-79
2023/06/26 00:07:15;;;;;;;14.30;7.53;;;26.60;99.90;;;;;;1892145;74;21178;-82
2023/06/26 00:09:46;;;;;;;12.68;7.30;;;26.60;99.90;;;;;;1907307;73;21126;-80
2023/06/26 00:12:19;;;;;;;17.92;6.22;;;26.60;99.90;;;;;;1909718;73;21746;-80
2023/06/26 00:14:50;;;;;;;12.03;6.45;;;26.60;99.90;;;;;;1912347;73;21272;-80
2023/06/26 00:17:27;;;;;;;11.28;6.15;;;26.60;99.90;;;;;;1916107;73;21129;-82
2023/06/26 00:20:05;;;;;;;10.08;5.45;;;26.60;99.90;;;;;;1900158;73;21194;-83
2023/06/26 00:22:35;;;;;;;13.22;6.05;;;26.60;99.90;;;;;;1911096;73;21081;-79
2023/06/26 00:25:08;;;;;;;12.53;5.72;;;26.60;99.90;;;;;;1911268;73;21526;-80
2023/06/26 00:27:41;;;;;;;10.00;5.35;;;26.60;99.90;;;;;;1910835;73;21122;-79
2023/06/26 00:30:15;;;;;;;10.25;5.10;;;26.60;99.90;;;;;;1918532;72;21150;-81
2023/06/26 00:32:52;;;;;;;12.43;5.90;;;26.70;99.90;;;;;;1901958;73;21524;-78
2023/06/26 00:35:26;;;;;;;11.95;5.90;;;26.70;99.90;;;;;;1920550;73;22396;-80
2023/06/26 00:37:57;;;;;;;11.15;4.78;;;26.80;99.90;;;;;;1896625;73;21200;-80
2023/06/26 00:40:29;;;;;;;11.30;5.28;;;26.90;99.90;;;;;;1882022;74;21168;-80
2023/06/26 00:43:04;;;;;;;8.50;5.58;;;27.00;99.90;;;;;;1924035;73;21150;-84
2023/06/26 00:45:48;;;;;;;11.65;6.85;;;27.00;99.90;;;;;;1923505;74;21158;-79
2023/06/26 00:48:21;;;;;;;10.72;6.65;;;27.10;99.90;;;;;;1923350;73;21694;-79
2023/06/26 00:50:54;;;;;;;13.00;6.83;;;27.10;99.90;;;;;;1919964;73;21140;-82
2023/06/26 00:53:27;;;;;;;11.05;6.15;;;27.10;99.90;;;;;;1922004;73;21211;-82
2023/06/26 00:56:00;;;;;;;13.95;6.72;;;27.20;99.90;;;;;;1916554;73;21095;-85
2023/06/26 00:58:31;;;;;;;19.52;9.98;;;27.20;99.90;;;;;;1919781;73;21239;-68
2023/06/26 01:01:05;;;;;;;12.95;6.55;;;27.30;99.90;;;;;;1917104;73;21178;-65
2023/06/26 01:03:39;;;;;;;10.98;5.62;;;27.30;99.90;;;;;;1908765;73;21215;-68
2023/06/26 01:06:12;;;;;;;13.25;5.85;;;27.30;99.90;;;;;;1915710;73;21164;-69
2023/06/26 01:08:45;;;;;;;12.47;5.58;;;27.30;99.90;;;;;;1898768;74;21271;-69
2023/06/26 01:11:18;;;;;;;10.98;6.42;;;27.30;99.90;;;;;;1899952;74;21564;-69
2023/06/26 01:13:50;;;;;;;13.78;5.37;;;27.30;99.90;;;;;;1899704;73;21054;-69
2023/06/26 01:16:23;;;;;;;14.98;5.90;;;27.40;99.90;;;;;;1913621;73;21127;-71
2023/06/26 01:18:56;;;;;;;13.60;5.17;;;27.40;99.90;;;;;;1916560;74;21175;-69
2023/06/26 01:21:32;;;;;;;9.63;4.37;;;27.50;99.90;;;;;;1895448;73;21765;-70
2023/06/26 01:24:06;;;;;;;10.25;4.50;;;27.40;99.90;;;;;;1914942;73;21242;-69
2023/06/26 01:26:39;;;;;;;12.65;4.50;;;27.40;99.90;;;;;;1914974;73;21125;-68
2023/06/26 01:29:13;;;;;;;10.48;4.78;;;27.50;99.90;;;;;;1920569;73;21110;-69
2023/06/26 01:31:49;;;;;;;8.65;4.37;;;27.50;99.90;;;;;;1917492;73;21142;-68
2023/06/26 01:34:20;;;;;;;13.10;4.33;;;27.50;99.90;;;;;;1914187;72;21632;-68
2023/06/26 01:36:54;;;;;;;8.53;4.55;;;27.50;99.90;;;;;;1872708;75;21177;-67
2023/06/26 01:39:29;;;;;;;6.62;4.28;;;27.50;99.90;;;;;;1917167;74;21644;-69
2023/06/26 01:42:00;;;;;;;10.13;5.65;;;27.50;99.90;;;;;;1912817;73;21043;-68
2023/06/26 01:44:34;;;;;;;7.62;3.87;;;27.50;99.90;;;;;;1897985;74;21143;-68
2023/06/26 01:47:10;;;;;;;11.43;6.15;;;27.50;99.90;;;;;;1915190;73;21119;-70
2023/06/26 01:49:50;;;;;;;8.75;4.58;;;27.60;99.90;;;;;;1914457;73;21174;-83
2023/06/26 01:53:02;;;;;;;9.93;3.95;;;27.50;99.90;;;;;;1904595;73;21218;-83
2023/06/26 01:55:48;;;;;;;9.33;4.67;;;27.50;99.90;;;;;;1902597;73;21132;-81
2023/06/26 01:58:23;;;;;;;9.90;4.72;;;27.50;99.90;;;;;;1869689;73;21132;-82
2023/06/26 02:00:57;;;;;;;7.03;4.33;;;27.50;99.90;;;;;;1895805;73;21139;-82
2023/06/26 02:03:31;;;;;;;6.40;4.15;;;27.50;99.90;;;;;;1906265;73;21085;-80
2023/06/26 02:06:03;;;;;;;6.95;3.42;;;27.60;99.90;;;;;;1913955;73;21553;-80
2023/06/26 02:08:39;;;;;;;7.80;3.70;;;27.60;99.90;;;;;;1869943;75;21113;-79
2023/06/26 02:11:12;;;;;;;8.70;3.33;;;27.70;99.90;;;;;;1880689;73;21108;-81
2023/06/26 02:13:46;;;;;;;10.82;3.60;;;27.70;99.90;;;;;;1919747;73;21140;-80
2023/06/26 02:16:24;;;;;;;7.00;3.30;;;27.70;99.90;;;;;;1905369;73;21133;-82
2023/06/26 02:19:01;;;;;;;7.17;3.40;;;27.70;99.90;;;;;;1909018;74;21156;-83
2023/06/26 02:21:32;;;;;;;;;;;27.80;99.90;;;;;;1903900;75;21139;-81
2023/06/26 02:24:09;;;;;;;9.28;3.37;;;27.80;99.90;;;;;;1918029;73;20124;-83
2023/06/26 02:26:46;;;;;;;6.17;3.47;;;27.80;99.90;;;;;;1911798;73;21202;-80
2023/06/26 02:29:19;;;;;;;16.42;4.37;;;27.80;99.90;;;;;;1906434;73;21602;-80
2023/06/26 02:31:52;;;;;;;6.55;3.72;;;27.90;99.90;;;;;;1902555;74;21203;-82
2023/06/26 02:34:24;;;;;;;7.35;3.62;;;27.90;99.90;;;;;;1919128;73;21073;-79
2023/06/26 02:37:02;;;;;;;9.28;3.65;;;27.90;99.90;;;;;;1915555;73;21151;-80
2023/06/26 02:39:52;;;;;;;10.23;3.83;;;28.00;99.90;;;;;;1906469;73;21325;-81
2023/06/26 02:42:34;;;;;;;13.53;6.15;;;28.00;99.90;;;;;;1909560;73;21105;-83
2023/06/26 02:45:17;;;;;;;8.70;3.90;;;28.00;99.90;;;;;;1907459;73;21175;-82
2023/06/26 02:48:06;;;;;;;9.35;3.75;;;28.10;99.90;;;;;;1914121;74;21402;-79
2023/06/26 02:50:45;;;;;;;8.85;3.62;;;28.10;99.90;;;;;;1904967;73;21080;-78
2023/06/26 02:53:21;;;;;;;7.42;3.45;;;28.10;99.90;;;;;;1908124;74;21107;-82
2023/06/26 02:56:01;;;;;;;5.62;2.85;;;28.10;99.90;;;;;;1911326;73;21131;-82
2023/06/26 02:58:34;;;;;;;10.13;6.62;;;28.20;99.90;;;;;;1914150;73;21589;-81
2023/06/26 03:01:09;;;;;;;5.10;2.70;;;28.20;99.90;;;;;;1907207;73;21157;-81
2023/06/26 03:03:43;;;;;;;8.60;2.90;;;28.20;99.90;;;;;;1887610;74;21129;-82
2023/06/26 03:06:17;;;;;;;7.50;2.70;;;28.30;99.90;;;;;;1908140;73;21135;-82
2023/06/26 03:08:51;;;;;;;7.40;2.75;;;28.20;99.90;;;;;;1903442;73;21159;-65
2023/06/26 03:11:23;;;;;;;5.22;3.50;;;28.30;99.90;;;;;;1902635;73;21074;-68
2023/06/26 03:13:54;;;;;;;9.78;3.72;;;28.30;99.90;;;;;;1897026;75;21581;-67
2023/06/26 03:16:27;;;;;;;26.80;6.87;;;28.30;99.90;;;;;;1886203;74;21181;-68
2023/06/26 03:19:00;;;;;;;18.70;4.62;;;28.30;99.90;;;;;;1888846;75;21109;-67
2023/06/26 03:21:31;;;;;;;12.20;4.12;;;28.30;99.90;;;;;;1927849;73;21887;-68
2023/06/26 03:24:02;;;;;;;7.50;3.25;;;28.40;99.90;;;;;;1915039;73;21627;-67
2023/06/26 03:26:34;;;;;;;8.43;3.72;;;28.30;99.90;;;;;;1900010;73;21642;-69
2023/06/26 03:29:06;;;;;;;11.78;3.50;;;28.40;99.90;;;;;;1907503;73;21577;-66
2023/06/26 03:31:38;;;;;;;26.65;7.58;;;28.40;99.90;;;;;;1894626;73;21133;-68
2023/06/26 03:34:12;;;;;;;9.83;3.95;;;28.40;99.90;;;;;;1899137;73;21620;-68
2023/06/26 03:36:43;;;;;;;6.45;3.05;;;28.40;99.90;;;;;;1900399;73;21119;-69
2023/06/26 03:39:16;;;;;;;5.17;2.42;;;28.40;99.90;;;;;;1904418;73;21206;-68
2023/06/26 03:41:48;;;;;;;7.33;3.10;;;28.50;99.90;;;;;;1899071;73;21183;-67
2023/06/26 03:44:19;;;;;;;11.55;2.90;;;28.50;99.90;;;;;;1904633;73;21150;-67
2023/06/26 03:46:51;;;;;;;5.97;3.08;;;28.50;99.90;;;;;;1904064;73;21111;-68
2023/06/26 03:49:42;;;;;;;4.95;2.92;;;28.60;99.90;;;;;;1913952;73;21206;-68
2023/06/26 03:52:14;;;;;;;7.87;2.95;;;28.70;99.90;;;;;;1835889;76;21620;-66
2023/06/26 03:54:46;;;;;;;6.10;2.85;;;28.70;99.90;;;;;;1816788;77;21112;-67
2023/06/26 03:57:17;;;;;;;8.68;3.02;;;28.80;99.90;;;;;;1878771;74;21198;-67
2023/06/26 03:59:50;;;;;;;6.37;2.85;;;28.80;99.90;;;;;;1882196;74;21668;-68
2023/06/26 04:02:22;;;;;;;8.10;3.65;;;28.80;99.90;;;;;;1885510;74;21219;-69
2023/06/26 04:04:55;;;;;;;7.20;3.00;;;28.90;99.90;;;;;;1886213;74;21758;-68
2023/06/26 04:07:27;;;;;;;5.08;3.00;;;28.90;99.90;;;;;;1859243;75;21471;-68
2023/06/26 04:09:59;;;;;;;5.33;3.00;;;29.00;99.90;;;;;;1846225;76;21166;-67
2023/06/26 04:12:31;;;;;;;8.25;4.12;;;29.10;99.90;;;;;;1831532;77;21078;-68
2023/06/26 04:15:04;;;;;;;9.55;3.37;;;29.20;99.90;;;;;;1817611;77;21236;-69
2023/06/26 04:17:36;;;;;;;6.08;3.00;;;29.30;99.90;;;;;;1888658;74;21127;-67
2023/06/26 04:20:09;;;;;;;4.95;3.10;;;29.40;99.90;;;;;;1867695;74;21696;-66
2023/06/26 04:22:40;;;;;;;8.40;3.47;;;29.40;99.90;;;;;;1878980;74;21149;-69
2023/06/26 04:25:12;;;;;;;7.67;3.17;;;29.50;99.90;;;;;;1856598;75;21501;-69
2023/06/26 04:28:02;;;;;;;5.67;2.80;;;29.60;99.90;;;;;;1860769;76;21170;-67
2023/06/26 04:30:34;;;;;;;6.47;2.90;;;29.70;99.90;;;;;;1803275;77;21645;-69
2023/06/26 04:33:06;;;;;;;7.75;2.87;;;29.70;99.90;;;;;;1788182;77;21078;-68
2023/06/26 04:35:37;;;;;;;6.20;2.42;;;29.80;99.90;;;;;;1828554;76;21137;-68
2023/06/26 04:38:10;;;;;;;8.25;2.62;;;29.90;99.90;;;;;;1803871;78;21119;-67
2023/06/26 04:40:42;;;;;;;5.05;3.08;;;29.90;99.90;;;;;;1817343;77;21162;-70
2023/06/26 04:43:13;;;;;;;8.25;3.50;;;30.00;99.90;;;;;;1825686;76;21507;-68
2023/06/26 04:45:46;;;;;;;7.92;2.92;;;30.00;99.90;;;;;;1817200;76;21153;-68
2023/06/26 04:48:17;;;;;;;7.55;3.20;;;30.00;99.90;;;;;;1825003;76;21167;-69
2023/06/26 04:50:53;;;;;;;5.33;2.70;;;30.10;99.90;;;;;;1823602;76;21613;-68
2023/06/26 04:53:23;;;;;;;8.30;2.95;;;30.10;99.90;;;;;;1825719;77;21206;-69
2023/06/26 04:55:55;;;;;;;7.05;2.72;;;30.20;99.90;;;;;;1827137;77;22609;-69
2023/06/26 04:58:27;;;;;;;5.72;3.30;;;30.20;99.90;;;;;;1779655;78;21522;-68
2023/06/26 05:00:58;;;;;;;6.28;3.02;;;30.20;99.90;;;;;;1786777;78;21174;-68
2023/06/26 05:03:31;;;;;;;12.20;3.45;;;30.20;99.90;;;;;;1829421;77;21182;-73
2023/06/26 05:06:03;;;;;;;10.35;3.45;;;30.20;99.90;;;;;;1854960;75;21147;-71
2023/06/26 05:08:37;;;;;;;6.65;4.03;;;30.30;99.90;;;;;;1851121;75;21631;-65
2023/06/26 05:11:09;;;;;;;6.78;3.30;;;30.30;99.90;;;;;;1805763;77;21183;-68
2023/06/26 05:13:40;;;;;;;7.28;3.55;;;30.30;99.90;;;;;;1823288;76;21190;-68
2023/06/26 05:16:12;;;;;;;7.15;3.50;;;30.30;99.90;;;;;;1805008;77;21112;-69
2023/06/26 05:18:43;;;;;;;5.08;2.72;;;30.30;99.90;;;;;;1813510;77;21146;-66
2023/06/26 05:21:16;;;;;;;7.00;3.12;;;30.30;99.90;;;;;;1783776;78;21087;-71
2023/06/26 05:23:48;;;;;;;5.53;3.33;;;30.40;99.90;;;;;;1789491;78;21099;-70
2023/06/26 05:26:20;;;;;;;6.17;2.98;;;30.30;99.90;;;;;;1828198;77;21457;-68
2023/06/26 05:28:52;;;;;;;6.50;3.27;;;30.40;99.90;;;;;;1819749;77;21229;-68
2023/06/26 05:31:24;;;;;;;4.58;3.00;;;30.40;99.90;;;;;;1810280;77;21221;-68
2023/06/26 05:33:58;;;;;;;6.28;2.83;;;30.40;99.90;;;;;;1840894;76;21199;-68
2023/06/26 05:36:30;;;;;;;4.75;2.60;;;30.50;99.90;;;;;;1833710;76;21198;-70
2023/06/26 05:39:02;;;;;;;5.28;3.10;;;30.40;99.90;;;;;;1823271;77;21662;-68
2023/06/26 05:41:34;;;;;;;8.33;3.77;;;30.40;99.90;;;;;;1815264;77;21158;-70
2023/06/26 05:44:06;;;;;;;6.55;3.60;;;30.40;99.90;;;;;;1817465;77;21617;-70
2023/06/26 05:46:38;;;;;;;8.90;2.83;;;30.40;99.90;;;;;;1814597;77;21158;-70
2023/06/26 05:49:14;;;;;;;5.78;2.90;;;30.40;99.90;;;;;;1820116;77;21162;-69
2023/06/26 05:51:46;;;;;;;6.67;3.25;;;30.40;99.90;;;;;;1792775;78;21158;-68
2023/06/26 05:54:20;;;;;;;7.62;3.30;;;30.40;99.90;;;;;;1819570;77;21159;-69
2023/06/26 05:56:54;;;;;;;6.10;3.62;;;30.40;99.90;;;;;;1813879;77;21627;-68
2023/06/26 05:59:27;;;;;;;5.55;3.52;;;30.40;99.90;;;;;;1817176;77;21652;-68
2023/06/26 06:01:59;;;;;;;6.35;3.08;;;30.40;99.90;;;;;;1817368;77;21715;-68
2023/06/26 06:04:31;;;;;;;12.58;3.65;;;30.40;99.90;;;;;;1830746;77;21162;-67
2023/06/26 06:07:03;;;;;;;11.53;4.33;;;30.50;99.90;;;;;;1819266;77;21628;-68
2023/06/26 06:09:35;;;;;;;16.57;4.28;;;30.50;99.90;;;;;;1818640;77;21689;-67
2023/06/26 06:12:09;;;;;;;7.83;3.65;;;30.50;99.90;;;;;;1816183;77;21625;-69
2023/06/26 06:14:40;;;;;;;5.60;2.80;;;30.60;99.90;;;;;;1829687;76;21138;-67
2023/06/26 06:17:13;;;;;;;6.47;3.77;;;30.60;99.90;;;;;;1824486;77;21107;-69
2023/06/26 06:19:47;;;;;;;4.10;3.33;;;30.60;99.90;;;;;;1820012;77;21082;-67
2023/06/26 06:22:19;;;;;;;7.95;3.47;;;30.60;99.90;;;;;;1824222;77;21205;-67
2023/06/26 06:24:53;;;;;;;9.43;3.62;;;30.60;99.90;;;;;;1791226;79;21187;-67
2023/06/26 06:27:25;;;;;;;9.63;3.98;;;30.60;99.90;;;;;;1850388;76;21539;-67
2023/06/26 06:29:59;;;;;;;8.75;4.10;;;30.60;99.90;;;;;;1855195;76;21580;-68
2023/06/26 06:32:30;;;;;;;7.40;3.67;;;30.60;99.90;;;;;;1854186;75;21089;-68
2023/06/26 06:35:09;;;;;;;6.80;3.35;;;30.60;99.90;;;;;;1859672;76;21166;-68
2023/06/26 06:37:35;;;;;;;6.53;3.02;;;30.60;99.90;;;;;;1848413;74;21232;-69
2023/06/26 06:40:10;;;;;;;7.12;3.50;;;30.60;99.90;;;;;;1860261;76;21087;-68
2023/06/26 06:42:42;;;;;;;5.45;3.00;;;30.70;99.90;;;;;;1851390;75;21195;-69
2023/06/26 06:45:15;;;;;;;7.50;4.20;;;30.70;99.90;;;;;;1815911;77;21135;-69
2023/06/26 06:47:46;;;;;;;5.33;3.15;;;30.70;99.90;;;;;;1821033;77;21196;-69
2023/06/26 06:50:18;;;;;;;8.15;3.25;;;30.70;99.90;;;;;;1777550;78;21750;-70
2023/06/26 06:52:49;;;;;;;25.48;6.60;;;30.70;99.90;;;;;;1828297;76;21589;-68
2023/06/26 06:55:22;;;;;;;7.47;3.50;;;30.80;99.90;;;;;;1816579;77;21223;-70
2023/06/26 06:57:56;;;;;;;7.10;3.10;;;30.80;99.90;;;;;;1814259;78;21115;-69
2023/06/26 07:00:28;;;;;;;11.97;4.33;;;30.80;99.90;;;;;;1848601;76;21056;-67
2023/06/26 07:03:00;;;;;;;13.78;3.70;;;30.80;99.90;;;;;;1828948;76;21216;-68
2023/06/26 07:05:31;;;;;;;6.62;4.33;;;30.90;99.90;;;;;;1855911;75;21230;-67
2023/06/26 07:08:03;;;;;;;7.12;3.75;;;30.90;99.90;;;;;;1845371;75;21182;-69
2023/06/26 07:10:35;;;;;;;6.08;3.08;;;30.90;99.90;;;;;;1824583;77;21213;-69
2023/06/26 07:13:14;;;;;;;6.55;3.27;;;30.90;99.90;;;;;;1787277;78;21104;-68
2023/06/26 07:15:47;;;;;;;8.35;3.20;;;30.90;99.90;;;;;;1789066;78;21166;-70
2023/06/26 07:18:21;;;;;;;7.40;3.72;;;30.90;99.90;;;;;;1823338;77;21104;-69
2023/06/26 07:20:53;;;;;;;7.95;3.02;;;30.90;99.90;;;;;;1818167;77;21150;-68
2023/06/26 07:23:25;;;;;;;5.83;3.35;;;30.90;99.90;;;;;;1822432;77;21193;-72
2023/06/26 07:25:57;;;;;;;6.42;3.50;;;30.90;99.90;;;;;;1787582;78;21730;-69
2023/06/26 07:28:29;;;;;;;6.67;3.30;;;30.90;99.90;;;;;;1788025;78;21249;-69
2023/06/26 07:31:02;;;;;;;7.33;3.90;;;31.00;99.90;;;;;;1820130;77;21568;-68
2023/06/26 07:33:36;;;;;;;8.55;3.85;;;31.00;99.90;;;;;;1829570;77;21125;-67
2023/06/26 07:36:07;;;;;;;9.15;3.72;;;31.00;99.90;;;;;;1828827;77;21123;-68
2023/06/26 07:38:38;;;;;;;6.90;3.60;;;31.10;99.90;;;;;;1793761;79;21116;-69
2023/06/26 07:41:09;;;;;;;7.33;3.05;;;31.20;99.90;;;;;;1804820;77;21211;-67
2023/06/26 07:43:42;;;;;;;7.10;3.17;;;31.20;99.90;;;;;;1814624;77;21230;-68
2023/06/26 07:46:14;;;;;;;7.15;3.12;;;31.20;99.80;;;;;;1818098;77;21182;-69
2023/06/26 07:48:45;;;;;;;5.92;3.17;;;31.20;99.60;;;;;;1838055;77;21588;-69
2023/06/26 07:51:22;;;;;;;6.78;3.40;;;31.30;99.80;;;;;;1856257;75;21134;-70
2023/06/26 07:53:54;;;;;;;7.40;3.50;;;31.40;99.90;;;;;;1841860;76;21095;-68
2023/06/26 07:56:27;;;;;;;9.05;3.58;;;31.50;99.70;;;;;;1795834;79;21229;-70
2023/06/26 07:59:04;;;;;;;6.33;3.27;;;31.50;99.30;;;;;;1827186;76;21143;-69
2023/06/26 08:01:34;;;;;;;6.55;3.40;;;31.50;99.30;;;;;;1781217;78;21233;-69
2023/06/26 08:04:07;;;;;;;6.25;2.90;;;31.50;99.40;;;;;;1817472;77;21119;-68
2023/06/26 08:06:40;;;;;;;8.65;5.28;;;31.50;99.50;;;;;;1851369;76;21192;-67
2023/06/26 08:09:12;;;;;;;5.90;3.40;;;31.50;98.90;;;;;;1831785;77;21228;-69
2023/06/26 08:11:43;;;;;;;8.10;5.37;;;31.40;98.80;;;;;;1779628;79;21178;-73
2023/06/26 08:14:15;;;;;;;11.83;3.98;;;31.40;99.00;;;;;;1840053;77;21093;-72
2023/06/26 08:16:48;;;;;;;9.58;3.45;;;31.30;99.40;;;;;;1794837;78;21178;-71
2023/06/26 08:19:19;;;;;;;8.08;3.75;;;31.30;99.60;;;;;;1797147;78;21181;-70
2023/06/26 08:21:51;;;;;;;7.70;3.30;;;31.20;99.10;;;;;;1795923;78;21205;-70
2023/06/26 08:24:23;;;;;;;4.70;2.92;;;31.30;99.20;;;;;;1844772;76;21205;-72
2023/06/26 08:26:55;;;;;;;7.25;2.95;;;31.30;99.50;;;;;;1813748;77;21186;-71
2023/06/26 08:29:26;;;;;;;9.88;3.25;;;31.20;99.50;;;;;;1816636;77;21095;-70
2023/06/26 08:31:58;;;;;;;5.78;2.95;;;31.20;99.70;;;;;;1842042;77;21196;-71
2023/06/26 08:34:32;;;;;;;7.55;3.10;;;31.10;99.60;;;;;;1775771;78;21107;-70
2023/06/26 08:37:05;;;;;;;7.37;2.92;;;31.10;99.70;;;;;;1819525;77;21187;-71
2023/06/26 08:39:38;;;;;;;6.03;3.27;;;30.90;99.70;;;;;;1816253;77;21139;-70
2023/06/26 08:42:10;;;;;;;6.12;2.30;;;30.90;99.90;;;;;;1823330;77;21194;-69
2023/06/26 08:44:45;;;;;;;8.03;2.65;;;30.80;98.80;;;;;;1831339;77;21199;-68
2023/06/26 08:47:17;;;;;;;9.03;2.62;;;30.60;99.10;;;;;;1780782;78;21636;-69
2023/06/26 08:49:53;;;;;;;13.90;2.58;;;30.30;99.80;;;;;;1807230;77;21648;-68
2023/06/26 08:52:35;;;;;;;19.77;2.60;;;30.10;99.30;;;;;;1857986;76;21656;-68
2023/06/26 08:55:09;;;;;;;61.18;5.83;;;29.80;98.50;;;;;;1842295;75;21131;-68
2023/06/26 08:57:41;;;;;;;9.28;1.30;;;29.60;98.80;;;;;;1855247;75;21670;-67
2023/06/26 09:00:14;;;;;;;9.48;1.67;;;29.30;98.60;;;;;;1857107;76;21116;-67
2023/06/26 09:02:47;;;;;;;4.70;1.40;;;29.10;99.10;;;;;;1843664;77;21058;-67
2023/06/26 09:05:19;;;;;;;19.05;3.10;;;29.00;99.90;;;;;;1845541;77;21179;-69
2023/06/26 09:07:50;;;;;;;19.87;3.08;;;28.80;99.90;;;;;;1825108;77;21140;-66
2023/06/26 09:10:22;;;;;;;7.10;1.90;;;28.60;99.90;;;;;;1823155;77;21194;-67
2023/06/26 09:12:57;;;;;;;5.75;1.70;;;28.50;99.90;;;;;;1818107;77;21085;-70
2023/06/26 09:15:30;;;;;;;6.08;1.40;;;28.20;99.90;;;;;;1821133;77;21135;-67
2023/06/26 09:18:04;;;;;;;5.28;1.42;;;28.10;99.90;;;;;;1815014;77;21196;-67
2023/06/26 09:20:36;;;;;;;4.83;1.20;;;27.90;99.90;;;;;;1826253;77;21201;-65
2023/06/26 09:23:08;;;;;;;5.47;1.35;;;27.80;99.90;;;;;;1818786;77;21165;-68
2023/06/26 09:25:41;;;;;;;5.72;1.70;;;27.60;99.90;;;;;;1834214;76;21144;-67
2023/06/26 09:28:13;;;;;;;5.42;1.47;;;27.50;99.90;;;;;;1824854;77;21586;-66
2023/06/26 09:30:51;;;;;;;5.40;1.72;;;27.40;99.90;;;;;;1808367;77;21194;-67
2023/06/26 09:33:21;;;;;;;4.00;1.95;;;27.40;99.90;;;;;;1791929;78;21239;-66
2023/06/26 09:35:53;;;;;;;7.00;2.37;;;27.40;99.90;;;;;;1826830;77;21252;-71
2023/06/26 09:38:25;;;;;;;4.70;1.80;;;27.40;99.90;;;;;;1819528;77;21560;-67
2023/06/26 09:40:56;;;;;;;6.05;2.00;;;27.40;99.90;;;;;;1818231;76;21213;-68
2023/06/26 09:43:31;;;;;;;7.55;1.60;;;27.40;99.90;;;;;;1816845;76;21157;-67
2023/06/26 09:46:03;;;;;;;3.17;1.22;;;27.50;99.90;;;;;;1812953;76;21115;-70
2023/06/26 09:48:35;;;;;;;4.95;1.52;;;27.50;99.90;;;;;;1810158;78;21205;-69
2023/06/26 09:51:07;;;;;;;4.25;1.70;;;27.40;99.90;;;;;;1821733;76;21188;-68
2023/06/26 09:53:39;;;;;;;5.53;1.40;;;27.50;99.90;;;;;;1780918;79;21105;-66
2023/06/26 09:56:21;;;;;;;2.77;1.47;;;27.40;99.90;;;;;;1847067;76;21142;-67
2023/06/26 09:59:01;;;;;;;7.70;2.02;;;27.40;99.90;;;;;;1836625;76;21270;-67
2023/06/26 10:01:34;;;;;;;4.45;2.15;;;27.40;99.90;;;;;;1820170;77;21175;-67
2023/06/26 10:04:06;;;;;;;6.30;2.52;;;27.40;99.90;;;;;;1817379;77;21166;-65
2023/06/26 10:06:42;;;;;;;5.65;1.80;;;27.40;99.90;;;;;;1822926;77;21185;-68
2023/06/26 10:09:18;;;;;;;5.25;1.95;;;27.30;99.90;;;;;;1820085;77;21112;-66
2023/06/26 10:11:57;;;;;;;8.38;5.22;;;27.30;99.90;;;;;;1857884;74;21201;-66
2023/06/26 10:14:31;;;;;;;10.23;4.45;;;27.30;99.90;;;;;;1847783;76;21071;-69
2023/06/26 10:17:04;;;;;;;4.58;2.40;;;27.30;99.90;;;;;;1842950;76;21174;-68
2023/06/26 10:19:39;;;;;;;5.40;1.70;;;27.30;99.90;;;;;;1814970;78;21583;-66
2023/06/26 10:22:12;;;;;;;5.20;2.47;;;27.30;99.90;;;;;;1817515;77;21077;-68
2023/06/26 10:24:44;;;;;;;3.42;1.67;;;27.30;99.90;;;;;;1799830;78;21164;-67
2023/06/26 10:27:21;;;;;;;6.10;1.77;;;27.30;99.90;;;;;;1822018;78;21212;-68
2023/06/26 10:29:58;;;;;;;6.20;1.50;;;27.30;99.90;;;;;;1817120;77;21202;-68
2023/06/26 10:32:32;;;;;;;3.40;1.37;;;27.20;99.90;;;;;;1820559;77;21154;-67
2023/06/26 10:35:04;;;;;;;4.80;1.87;;;27.20;99.90;;;;;;1849491;77;21596;-68
2023/06/26 10:37:46;;;;;;;4.47;1.67;;;27.20;99.90;;;;;;1844065;76;21087;-68
2023/06/26 10:40:27;;;;;;;4.37;1.20;;;27.20;99.90;;;;;;1845047;76;21139;-68
2023/06/26 10:43:13;;;;;;;4.92;1.80;;;27.20;99.90;;;;;;1831969;75;21091;-68
2023/06/26 10:45:52;;;;;;;;;;;27.20;99.90;;;;;;1853230;76;21146;-66
2023/06/26 10:48:23;;;;;;;3.27;1.40;;;27.20;99.90;;;;;;1842527;77;20123;-66
2023/06/26 10:50:56;;;;;;;3.22;1.22;;;27.20;99.90;;;;;;1847910;76;21220;-65
2023/06/26 10:53:33;;;;;;;3.98;2.08;;;27.20;99.90;;;;;;1858076;76;21117;-68
2023/06/26 10:56:03;;;;;;;5.70;1.85;;;27.20;99.90;;;;;;1844604;76;21170;-68
2023/06/26 10:58:46;;;;;;;5.70;2.00;;;27.20;99.90;;;;;;1845071;76;21169;-68
2023/06/26 11:01:26;;;;;;;4.22;2.00;;;27.20;99.90;;;;;;1858199;76;21841;-68
2023/06/26 11:04:07;;;;;;;6.58;2.00;;;27.10;99.90;;;;;;1844800;75;21189;-69
2023/06/26 11:06:39;;;;;;;3.67;2.00;;;27.20;99.90;;;;;;1846696;75;21716;-67
2023/06/26 11:09:14;;;;;;;5.30;2.20;;;27.20;99.90;;;;;;1847507;76;21131;-68
2023/06/26 11:11:58;;;;;;;5.72;2.00;;;27.10;99.90;;;;;;1846301;77;21181;-69
2023/06/26 11:14:33;;;;;;;4.15;2.30;;;27.10;99.90;;;;;;1847681;76;21122;-70
2023/06/26 11:17:06;;;;;;;6.97;2.15;;;27.10;99.90;;;;;;1812731;78;21228;-69
2023/06/26 11:19:42;;;;;;;6.12;2.30;;;27.10;99.90;;;;;;1826816;77;21825;-67
2023/06/26 11:22:15;;;;;;;6.80;2.42;;;27.10;99.90;;;;;;1824917;77;21138;-66
2023/06/26 11:24:47;;;;;;;5.12;2.30;;;27.10;99.90;;;;;;1825562;77;21660;-67
2023/06/26 11:27:23;;;;;;;6.90;2.40;;;27.20;99.90;;;;;;1817440;77;21603;-66
2023/06/26 11:29:54;;;;;;;5.25;2.35;;;27.10;99.90;;;;;;1790894;78;21227;-66
2023/06/26 11:32:28;;;;;;;4.72;2.90;;;27.10;99.90;;;;;;1835398;76;21099;-67
2023/06/26 11:35:00;;;;;;;9.13;3.30;;;27.10;99.90;;;;;;1849957;76;21119;-66
2023/06/26 11:37:32;;;;;;;6.60;3.83;;;27.20;99.90;;;;;;1849650;76;21748;-66
2023/06/26 11:40:21;;;;;;;5.55;3.27;;;27.10;99.90;;;;;;1805678;78;21130;-68
2023/06/26 11:42:53;;;;;;;6.40;3.25;;;27.20;99.90;;;;;;1790403;79;21213;-67
2023/06/26 11:45:25;;;;;;;7.03;4.37;;;27.20;99.90;;;;;;1829833;77;21190;-68
2023/06/26 11:47:57;;;;;;;8.43;4.15;;;27.20;99.90;;;;;;1849521;75;21158;-69
2023/06/26 11:50:29;;;;;;;7.28;3.62;;;27.20;99.90;;;;;;1788887;78;21213;-69
2023/06/26 11:53:02;;;;;;;6.08;3.02;;;27.20;99.90;;;;;;1816246;77;21167;-67
2023/06/26 11:55:35;;;;;;;4.90;2.55;;;27.20;99.90;;;;;;1830731;77;21119;-67
2023/06/26 11:58:07;;;;;;;7.60;3.05;;;27.20;99.90;;;;;;1857465;76;21194;-69
2023/06/26 12:00:45;;;;;;;7.90;2.98;;;27.20;99.90;;;;;;1829939;76;21148;-70
2023/06/26 12:03:17;;;;;;;5.45;3.17;;;27.10;99.90;;;;;;1806791;78;21180;-67
2023/06/26 12:05:49;;;;;;;6.67;3.20;;;27.10;99.90;;;;;;1821466;77;21452;-67
2023/06/26 12:08:23;;;;;;;5.17;3.25;;;27.00;99.90;;;;;;1825651;76;21147;-67
2023/06/26 12:10:55;;;;;;;8.80;3.20;;;27.00;99.90;;;;;;1860759;76;21166;-67
2023/06/26 12:13:27;;;;;;;7.22;3.33;;;27.10;99.90;;;;;;1867642;76;21671;-68
2023/06/26 12:15:59;;;;;;;6.65;3.80;;;27.10;99.90;;;;;;1835410;77;21111;-67
2023/06/26 12:18:39;;;;;;;7.05;3.00;;;27.10;99.90;;;;;;1840691;76;21514;-68
2023/06/26 12:21:12;;;;;;;8.35;3.40;;;27.10;99.90;;;;;;1822431;77;21068;-68
2023/06/26 12:23:44;;;;;;;9.05;3.02;;;27.00;99.90;;;;;;1791494;77;21242;-66
2023/06/26 12:26:24;;;;;;;8.73;2.77;;;27.00;99.90;;;;;;1811984;77;21638;-67
2023/06/26 12:29:11;;;;;;;7.33;2.60;;;27.00;99.90;;;;;;1780280;78;21145;-76
2023/06/26 12:31:47;;;;;;;5.50;2.27;;;26.80;99.90;;;;;;1814163;77;21092;-77
2023/06/26 12:34:24;;;;;;;8.33;2.58;;;26.80;99.90;;;;;;1861094;75;21222;-77
2023/06/26 12:37:09;;;;;;;5.72;2.58;;;26.70;99.90;;;;;;1847903;75;21083;-76
2023/06/26 12:39:58;;;;;;;5.65;2.35;;;26.70;99.90;;;;;;1784365;80;21656;-76
2023/06/26 12:42:33;;;;;;;5.92;2.47;;;26.70;99.90;;;;;;1834232;76;21143;-77
2023/06/26 12:45:16;;;;;;;8.33;3.37;;;26.70;99.90;;;;;;1812398;77;21085;-76
2023/06/26 12:47:56;;;;;;;8.95;2.60;;;26.70;99.90;;;;;;1820802;77;21325;-78
2023/06/26 12:50:33;;;;;;;59.45;42.20;;;26.70;99.90;;;;;;1827493;77;21306;-77
2023/06/26 12:53:05;;;;;;;7.20;3.45;;;26.70;99.90;;;;;;1820167;77;21103;-77
2023/06/26 12:55:42;;;;;;;7.40;2.60;;;26.80;99.90;;;;;;1797693;77;21104;-77
2023/06/26 12:58:13;;;;;;;11.53;2.90;;;26.80;99.90;;;;;;1812236;77;21199;-83
2023/06/26 13:00:48;;;;;;;7.90;2.72;;;26.80;99.90;;;;;;1800821;78;21807;-81
2023/06/26 13:03:24;;;;;;;4.58;2.70;;;26.80;99.90;;;;;;1741150;80;21195;-78
2023/06/26 13:06:01;;;;;;;9.28;2.60;;;26.70;99.90;;;;;;1819881;77;21164;-81
2023/06/26 13:08:34;;;;;;;8.65;3.87;;;26.70;99.90;;;;;;1764927;80;21143;-77
2023/06/26 13:11:07;;;;;;;10.93;6.17;;;26.70;99.90;;;;;;1809709;77;21133;-80
2023/06/26 13:13:40;;;;;;;14.80;7.30;;;26.70;99.90;;;;;;1854596;75;21049;-85
2023/06/26 13:16:16;;;;;;;17.37;13.05;;;26.70;99.90;;;;;;1831447;75;21206;-78
2023/06/26 13:18:51;;;;;;;23.80;21.50;;;26.70;99.90;;;;;;1844647;76;21488;-81
2023/06/26 13:21:23;;;;;;;28.07;25.17;;;26.70;99.90;;;;;;1847782;76;21209;-80